マニラ/ニノイ・アキノ の空港の天気 - METARとTAF

ニノイ・アキノ国際空港 ( RPLL / MNL ) - フィリピン マニラ
飛行場実況気象(Metar)
観測時間04/25 15:00 PHT (04/25 07:00 UTC)
風向・風速東南東 5m/s
視程10km以上
天気現象
少しの雲 雲底高度 820m
気温35℃
湿度32%
気圧1007hPa
METARRPLL 250700Z 12010KT 080V150 9999 FEW027 35/16 Q1007 NOSIG RMK A2974
過去の天気等 Google飛行場航空写真 Wunderground天気予報

過去48時間のMETAR

飛行場予報(TAF)
発表時間: 4/25 13:00 PHT (4/25 05:00 UTC)
予報対象時間: 25日14時 PHT ~ 26日20時 PHT
風向・風速東 4m/s
視程10km以上
少しの雲 雲底高度 760m
25日14時 PHT ~ 25日20時 PHT に一時的に
風向・風速東南東 7m/s
25日23時 PHT ~ 26日5時 PHT に一時的に
風向・風速東 3m/s
TAF RPLL 250500Z 2506/2612 10008KT 9999 FEW025 TX36/2506Z TN27/2522Z
TEMPO 2506/2512 12014KT
TEMPO 2515/2521 09006KT